Time;durP1;ratioP1;P1;durP2;ratioP2;P2;SDS_P1;SDS_P2;PMS_P1;PMS_P2;Temp;Humidity;BMP_temperature;BMP_pressure;BME280_temperature;BME280_humidity;BME280_pressure;Samples;Min_cycle;Max_cycle;Signal;HPM_P1;HPM_P2
2021/12/11 00:02:02;;;;;;;;;2.25;2.25;;;;;-147.17;100.00;50473.94;4954303;28;51938;-63
2021/12/11 00:04:34;;;;;;;;;4.00;4.00;;;;;-147.17;100.00;50477.88;4948950;28;51312;-66
2021/12/11 00:07:02;;;;;;;;;3.00;3.00;;;;;-147.17;100.00;50485.75;4955852;28;52456;-66
2021/12/11 00:09:44;;;;;;;;;7.50;4.00;;;;;-147.17;100.00;50464.09;4955612;28;51287;-66
2021/12/11 00:12:16;;;;;;;;;3.25;3.25;;;;;-147.17;100.00;50470.00;4954885;28;51317;-66
2021/12/11 00:14:47;;;;;;;;;6.25;3.00;;;;;-147.17;100.00;50462.13;4955524;28;51209;-64
2021/12/11 00:17:20;;;;;;;;;4.50;4.50;;;;;-147.17;100.00;50493.63;4951353;28;52096;-64
2021/12/11 00:19:46;;;;;;;;;15.00;15.00;;;;;-147.17;100.00;50462.13;4952183;28;51748;-65
2021/12/11 00:22:15;;;;;;;;;3.25;3.00;;;;;-147.17;100.00;50519.22;4955023;28;51032;-65
2021/12/11 00:24:41;;;;;;;;;1.50;1.50;;;;;-147.17;100.00;50471.97;4953528;28;51035;-64
2021/12/11 00:27:11;;;;;;;;;5.00;3.00;;;;;-147.17;100.00;50493.63;4951242;28;51132;-65
2021/12/11 00:29:38;;;;;;;;;7.25;5.00;;;;;-147.17;100.00;50489.69;4946137;28;50933;-66
2021/12/11 00:32:10;;;;;;;;;6.50;5.00;;;;;-147.17;100.00;50471.97;4950319;28;51508;-66
2021/12/11 00:34:40;;;;;;;;;3.25;3.00;;;;;-147.17;100.00;50501.50;4946837;28;51242;-66
2021/12/11 00:37:09;;;;;;;;;5.00;4.00;;;;;-147.17;100.00;50470.00;4953116;28;52072;-66
2021/12/11 00:39:44;;;;;;;;;4.00;3.25;;;;;-147.17;100.00;50511.34;4944642;28;51166;-66
2021/12/11 00:42:12;;;;;;;;;3.50;2.75;;;;;-147.17;100.00;50477.88;4950064;28;51219;-65
2021/12/11 00:44:43;;;;;;;;;2.50;2.50;;;;;-147.17;100.00;50497.56;4953083;28;51003;-65
2021/12/11 00:47:15;;;;;;;;;7.00;4.00;;;;;-147.17;100.00;50491.66;4948870;28;52087;-65
2021/12/11 00:49:58;;;;;;;;;2.50;2.00;;;;;-147.17;100.00;50497.56;4952690;28;51008;-66
2021/12/11 00:52:37;;;;;;;;;3.00;3.00;;;;;-147.17;100.00;50493.63;4951236;28;51331;-65
2021/12/11 00:55:23;;;;;;;;;4.00;3.00;;;;;-147.17;100.00;50499.53;4943186;28;51257;-65
2021/12/11 00:58:02;;;;;;;;;5.75;3.75;;;;;-147.17;100.00;50499.53;4951548;28;51736;-65
2021/12/11 01:00:28;;;;;;;;;2.00;2.00;;;;;-147.17;100.00;50477.88;4942715;28;51192;-65
2021/12/11 01:02:54;;;;;;;;;0.00;0.00;;;;;-147.17;100.00;50458.19;4952945;28;51198;-66
2021/12/11 01:05:22;;;;;;;;;4.00;3.25;;;;;-147.17;100.00;50487.72;4951365;28;51132;-65
2021/12/11 01:07:47;;;;;;;;;2.75;2.75;;;;;-147.17;100.00;50477.88;4946896;28;52787;-66
2021/12/11 01:10:26;;;;;;;;;5.75;4.25;;;;;-147.17;100.00;50489.69;4949698;28;51005;-65
2021/12/11 01:13:02;;;;;;;;;6.00;2.75;;;;;-147.17;100.00;50464.09;4952359;28;51093;-66
2021/12/11 01:15:40;;;;;;;;;4.00;4.00;;;;;-147.17;100.00;50477.88;4951862;28;51422;-65
2021/12/11 01:18:22;;;;;;;;;3.75;3.00;;;;;-147.17;100.00;50491.66;4955085;28;51052;-66
2021/12/11 01:21:01;;;;;;;;;5.75;3.00;;;;;-147.17;100.00;50477.88;4953074;28;51134;-66
2021/12/11 01:26:01;;;;;;;;;2.75;2.50;;;;;-147.17;100.00;50477.88;4951735;28;50957;-65
2021/12/11 01:28:27;;;;;;;;;3.75;3.00;;;;;-147.17;100.00;50489.69;4952303;28;50977;-66
2021/12/11 01:30:53;;;;;;;;;3.25;2.50;;;;;-147.17;100.00;50485.75;4954438;28;51201;-65
2021/12/11 01:33:19;;;;;;;;;3.00;3.00;;;;;-147.17;100.00;50464.09;4946182;28;51323;-66
2021/12/11 01:35:44;;;;;;;;;6.00;4.75;;;;;-147.17;100.00;50487.72;4943576;28;51323;-66
2021/12/11 01:38:18;;;;;;;;;4.00;3.00;;;;;-147.17;100.00;50485.75;4943213;28;53044;-66
2021/12/11 01:40:48;;;;;;;;;2.00;2.00;;;;;-147.17;100.00;50481.81;4965839;28;51192;-65
2021/12/11 01:43:14;;;;;;;;;6.00;3.00;;;;;-147.17;100.00;50477.88;4950744;28;52156;-65
2021/12/11 01:45:45;;;;;;;;;2.00;2.00;;;;;-147.17;100.00;50489.69;4952901;28;51352;-66
2021/12/11 01:48:25;;;;;;;;;1.00;1.00;;;;;-147.17;100.00;50487.72;4939167;28;51045;-65
2021/12/11 01:51:01;;;;;;;;;2.25;2.25;;;;;-147.17;100.00;50497.56;4935672;28;51323;-66
2021/12/11 01:53:33;;;;;;;;;4.25;2.75;;;;;-147.17;100.00;50454.25;4950534;28;51328;-65
2021/12/11 01:56:14;;;;;;;;;5.50;5.50;;;;;-147.17;100.00;50489.69;4944992;28;51105;-67
2021/12/11 01:58:49;;;;;;;;;4.25;3.25;;;;;-147.17;100.00;50471.97;4945180;28;54228;-65
2021/12/11 02:01:45;;;;;;;;;3.50;2.75;;;;;-147.17;100.00;50470.00;4940884;28;51230;-66
2021/12/11 02:04:13;;;;;;;;;3.00;3.00;;;;;-147.17;100.00;50458.19;4945544;28;51068;-65
2021/12/11 02:06:43;;;;;;;;;3.75;3.75;;;;;-147.17;100.00;50473.94;4950020;28;51324;-65
2021/12/11 02:09:16;;;;;;;;;1.75;1.75;;;;;-147.17;100.00;50489.69;4948450;28;52273;-65
2021/12/11 02:11:43;;;;;;;;;2.50;2.50;;;;;-147.17;100.00;50497.56;4950962;28;50970;-65
2021/12/11 02:14:11;;;;;;;;;5.50;3.00;;;;;-147.17;100.00;50473.94;4952613;28;51438;-65
2021/12/11 02:16:47;;;;;;;;;8.25;8.00;;;;;-147.17;100.00;50485.75;4952881;28;51311;-66
2021/12/11 02:19:32;;;;;;;;;4.25;3.00;;;;;-147.17;100.00;50448.34;4948632;28;51719;-65
2021/12/11 02:22:00;;;;;;;;;3.00;3.00;;;;;-147.17;100.00;50501.50;4949202;28;51108;-65
2021/12/11 02:24:33;;;;;;;;;4.75;4.75;;;;;-147.17;100.00;50462.13;4949160;28;51438;-65
2021/12/11 02:27:05;;;;;;;;;6.25;6.00;;;;;-147.17;100.00;50471.97;4941247;28;51145;-66
2021/12/11 02:29:36;;;;;;;;;2.75;2.25;;;;;-147.17;100.00;50460.16;4943564;28;51043;-66
2021/12/11 02:32:19;;;;;;;;;4.25;4.25;;;;;-147.17;100.00;50473.94;4946772;28;51088;-66
2021/12/11 02:35:00;;;;;;;;;4.25;3.50;;;;;-147.17;100.00;50485.75;4944762;28;51335;-66
2021/12/11 02:37:37;;;;;;;;;2.50;2.50;;;;;-147.17;100.00;50471.97;4948323;28;51151;-66
2021/12/11 02:40:12;;;;;;;;;2.25;2.00;;;;;-147.17;100.00;50458.19;4951517;28;52844;-66
2021/12/11 02:42:51;;;;;;;;;4.25;4.25;;;;;-147.17;100.00;50481.81;4949306;28;51003;-65
2021/12/11 02:45:25;;;;;;;;;2.50;2.00;;;;;-147.17;100.00;50434.56;4946478;28;51274;-66
2021/12/11 02:47:56;;;;;;;;;3.00;3.00;;;;;-147.17;100.00;50470.00;4948628;28;50850;-66
2021/12/11 02:50:22;;;;;;;;;2.00;2.00;;;;;-147.17;100.00;50460.16;4952221;28;51367;-65
2021/12/11 02:53:04;;;;;;;;;2.00;2.00;;;;;-147.17;100.00;50456.22;4944800;28;51197;-66
2021/12/11 02:55:45;;;;;;;;;5.75;3.25;;;;;-147.17;100.00;50485.75;4943381;28;51095;-65
2021/12/11 02:58:21;;;;;;;;;3.00;2.00;;;;;-147.17;100.00;50450.31;4949678;28;50933;-68
2021/12/11 03:00:56;;;;;;;;;2.00;2.00;;;;;-147.17;100.00;50460.16;4950039;28;51817;-66
2021/12/11 03:03:31;;;;;;;;;1.50;1.00;;;;;-147.17;100.00;50450.31;4944858;28;51090;-66
2021/12/11 03:06:10;;;;;;;;;1.75;1.75;;;;;-147.17;100.00;50489.69;4940353;28;51085;-65
2021/12/11 03:08:37;;;;;;;;;2.00;2.00;;;;;-147.17;100.00;50456.22;4943648;28;51246;-65
2021/12/11 03:11:06;;;;;;;;;2.00;1.00;;;;;-147.17;100.00;50470.00;4953260;28;51984;-66
2021/12/11 03:13:34;;;;;;;;;2.00;2.00;;;;;-147.17;100.00;50466.06;4952663;28;51059;-66
2021/12/11 03:16:01;;;;;;;;;2.00;2.00;;;;;-147.17;100.00;50491.66;4935277;28;51179;-65
2021/12/11 03:18:27;;;;;;;;;3.50;2.75;;;;;-147.17;100.00;50438.50;4940552;28;51071;-65
2021/12/11 03:20:54;;;;;;;;;3.00;3.00;;;;;-147.17;100.00;50458.19;4949950;28;52056;-65
2021/12/11 03:23:20;;;;;;;;;1.75;1.75;;;;;-147.17;100.00;50473.94;4949094;28;51125;-65
2021/12/11 03:25:47;;;;;;;;;4.00;4.00;;;;;-147.17;100.00;50470.00;4952284;28;51269;-65
2021/12/11 03:28:15;;;;;;;;;2.00;1.00;;;;;-147.17;100.00;50470.00;4949225;28;52535;-66
2021/12/11 03:30:45;;;;;;;;;2.00;2.00;;;;;-147.17;100.00;50477.88;4950522;28;51642;-65
2021/12/11 03:33:15;;;;;;;;;3.00;2.00;;;;;-147.17;100.00;50473.94;4951565;28;51097;-65
2021/12/11 03:35:41;;;;;;;;;2.50;1.75;;;;;-147.17;100.00;50477.88;4944850;28;51233;-66
2021/12/11 03:38:08;;;;;;;;;1.75;1.75;;;;;-147.17;100.00;50454.25;4953339;28;52154;-65
2021/12/11 03:40:34;;;;;;;;;2.75;1.75;;;;;-147.17;100.00;50462.13;4942267;28;52181;-65
2021/12/11 03:43:02;;;;;;;;;3.00;2.25;;;;;-147.17;100.00;50485.75;4940018;28;51038;-66
2021/12/11 03:45:33;;;;;;;;;3.00;1.75;;;;;-147.17;100.00;50454.25;4953377;28;50937;-65
2021/12/11 03:48:06;;;;;;;;;2.50;2.50;;;;;-147.17;100.00;50473.94;4955976;28;51223;-65
2021/12/11 03:50:32;;;;;;;;;1.50;1.00;;;;;-147.17;100.00;50446.38;4949599;28;51859;-65
2021/12/11 03:52:58;;;;;;;;;2.00;1.25;;;;;-147.17;100.00;50485.75;4945987;28;51237;-65
2021/12/11 03:55:35;;;;;;;;;3.25;2.25;;;;;-147.17;100.00;50501.50;4945605;28;51130;-65
2021/12/11 03:58:04;;;;;;;;;1.75;1.75;;;;;-147.17;100.00;50458.19;4952868;28;51043;-65
2021/12/11 04:00:37;;;;;;;;;4.50;3.50;;;;;-147.17;100.00;50464.09;4942395;28;52868;-65
2021/12/11 04:03:06;;;;;;;;;2.00;1.25;;;;;-147.17;100.00;50487.72;4948448;28;51076;-65
2021/12/11 04:05:36;;;;;;;;;1.50;1.00;;;;;-147.17;100.00;50462.13;4949530;28;51214;-65
2021/12/11 04:08:03;;;;;;;;;2.25;2.25;;;;;-147.17;100.00;50483.78;4945657;28;51152;-65
2021/12/11 04:10:28;;;;;;;;;2.25;2.00;;;;;-147.17;100.00;50495.59;4945207;28;52868;-65
2021/12/11 04:12:57;;;;;;;;;1.50;1.00;;;;;-147.17;100.00;50450.31;4950537;28;52156;-65
2021/12/11 04:15:24;;;;;;;;;2.75;1.00;;;;;-147.17;100.00;50466.06;4954886;28;51047;-65
2021/12/11 04:17:49;;;;;;;;;1.00;1.00;;;;;-147.17;100.00;50473.94;4950041;28;51368;-66
2021/12/11 04:20:19;;;;;;;;;1.00;1.00;;;;;-147.17;100.00;50462.13;4951214;28;51014;-65
2021/12/11 04:22:46;;;;;;;;;1.00;1.00;;;;;-147.17;100.00;50470.00;4943446;28;51074;-65
2021/12/11 04:25:14;;;;;;;;;2.00;1.00;;;;;-147.17;100.00;50483.78;4946518;28;50971;-65
2021/12/11 04:27:40;;;;;;;;;1.75;1.00;;;;;-147.17;100.00;50446.38;4942283;28;51062;-65
2021/12/11 04:30:09;;;;;;;;;3.25;1.50;;;;;-147.17;100.00;50501.50;4949402;28;51878;-65
2021/12/11 04:32:36;;;;;;;;;1.00;1.00;;;;;-147.17;100.00;50446.38;4950851;28;51174;-65
2021/12/11 04:35:04;;;;;;;;;1.25;1.25;;;;;-147.17;100.00;50442.44;4949273;28;51057;-65
2021/12/11 04:37:31;;;;;;;;;2.50;2.00;;;;;-147.17;100.00;50418.81;4954112;28;51405;-65
2021/12/11 04:40:03;;;;;;;;;1.25;1.25;;;;;-147.17;100.00;50470.00;4953115;28;51004;-65
2021/12/11 04:42:48;;;;;;;;;2.50;2.00;;;;;-147.17;100.00;50473.94;4947519;28;51225;-65
2021/12/11 04:45:19;;;;;;;;;1.25;1.00;;;;;-147.17;100.00;50470.00;4954031;28;51107;-65
2021/12/11 04:48:33;;;;;;;;;2.00;1.00;;;;;-147.17;100.00;50464.09;4951236;28;51160;-65
2021/12/11 04:50:44;;;;;;;;;1.50;1.50;;;;;-147.17;100.00;50495.59;4948819;28;51795;-65
2021/12/11 04:53:27;;;;;;;;;2.00;2.00;;;;;-147.17;100.00;50458.19;4953952;28;50928;-66
2021/12/11 05:06:41;;;;;;;;;2.75;2.75;;;;;-147.17;100.00;50497.56;4946918;28;51252;-65
2021/12/11 05:12:13;;;;;;;;;1.75;1.50;;;;;-147.17;100.00;50477.88;4948574;28;51847;-65
2021/12/11 05:14:40;;;;;;;;;2.00;2.00;;;;;-147.17;100.00;50454.25;4948001;28;51146;-64
2021/12/11 05:17:08;;;;;;;;;1.75;1.75;;;;;-147.17;100.00;50485.75;4951531;28;51168;-65
2021/12/11 05:19:34;;;;;;;;;3.00;2.00;;;;;-147.17;100.00;50475.91;4948828;28;51224;-66
2021/12/11 05:22:03;;;;;;;;;2.00;1.50;;;;;-147.17;100.00;50489.69;4951679;28;51832;-65
2021/12/11 05:24:29;;;;;;;;;2.50;2.00;;;;;-147.17;100.00;50466.06;4953168;28;50956;-66
2021/12/11 05:26:55;;;;;;;;;2.00;2.00;;;;;-147.17;100.00;50438.50;4954022;28;51131;-66
2021/12/11 05:29:20;;;;;;;;;2.00;2.00;;;;;-147.17;100.00;50430.63;4951511;28;51400;-66
2021/12/11 05:31:46;;;;;;;;;1.25;1.00;;;;;-147.17;100.00;50462.13;4952613;28;51775;-66
2021/12/11 05:34:11;;;;;;;;;2.25;2.00;;;;;-147.17;100.00;50446.38;4950010;28;51074;-65
2021/12/11 05:36:37;;;;;;;;;3.00;2.50;;;;;-147.17;100.00;50458.19;4951021;28;50996;-65
2021/12/11 05:39:11;;;;;;;;;2.00;1.00;;;;;-147.17;100.00;50434.56;4949657;28;51111;-66
2021/12/11 05:41:37;;;;;;;;;2.00;2.00;;;;;-147.17;100.00;50440.47;4946402;28;52043;-66
2021/12/11 05:44:04;;;;;;;;;2.00;2.00;;;;;-147.17;100.00;50428.66;4945802;28;51110;-66
2021/12/11 05:46:30;;;;;;;;;2.00;2.00;;;;;-147.17;100.00;50452.28;4938676;28;51082;-66
2021/12/11 05:48:56;;;;;;;;;2.00;2.00;;;;;-147.17;100.00;50426.69;4938667;28;50987;-66
2021/12/11 05:51:23;;;;;;;;;2.75;2.00;;;;;-147.17;100.00;50442.44;4944561;28;52488;-66
2021/12/11 05:53:53;;;;;;;;;3.50;2.25;;;;;-147.17;100.00;50436.53;4944612;28;51289;-65
2021/12/11 05:56:19;;;;;;;;;3.00;2.00;;;;;-147.17;100.00;50450.31;4954722;28;51219;-66
2021/12/11 06:01:21;;;;;;;;;1.75;1.50;;;;;-147.17;100.00;50468.03;4952905;28;51133;-65
2021/12/11 06:03:46;;;;;;;;;5.75;1.25;;;;;-147.17;100.00;50470.00;4951717;28;50999;-65
2021/12/11 06:06:12;;;;;;;;;3.75;2.75;;;;;-147.17;100.00;50440.47;4955120;28;50969;-66
2021/12/11 06:08:39;;;;;;;;;1.00;1.00;;;;;-147.17;100.00;50466.06;4946078;28;51195;-65
2021/12/11 06:11:05;;;;;;;;;2.75;1.75;;;;;-147.17;100.00;50477.88;4938389;28;51889;-65
2021/12/11 06:13:31;;;;;;;;;1.25;1.00;;;;;-147.17;100.00;50450.31;4951827;28;51060;-65
2021/12/11 06:15:58;;;;;;;;;2.00;1.00;;;;;-147.17;100.00;50473.94;4944084;28;51039;-65
2021/12/11 06:18:24;;;;;;;;;1.00;1.00;;;;;-147.17;100.00;50446.38;4948962;28;51055;-65
2021/12/11 06:20:50;;;;;;;;;2.00;2.00;;;;;-147.17;100.00;50468.03;4953040;28;52023;-64
2021/12/11 06:23:17;;;;;;;;;1.00;1.00;;;;;-147.17;100.00;50473.94;4948664;28;51198;-65
2021/12/11 06:25:43;;;;;;;;;2.50;2.50;;;;;-147.17;100.00;50442.44;4945382;28;51084;-65
2021/12/11 06:28:09;;;;;;;;;2.25;1.75;;;;;-147.17;100.00;50446.38;4949420;28;51080;-65
2021/12/11 06:30:36;;;;;;;;;1.50;1.50;;;;;-147.17;100.00;50442.44;4953791;28;50953;-65
2021/12/11 06:33:02;;;;;;;;;4.25;2.00;;;;;-147.17;100.00;50462.13;4943819;28;53452;-65
2021/12/11 06:35:40;;;;;;;;;1.00;1.00;;;;;-147.17;100.00;50428.66;4950275;28;51155;-65
2021/12/11 06:38:09;;;;;;;;;2.00;1.00;;;;;-147.17;100.00;50458.19;4942584;28;51255;-65
2021/12/11 06:40:36;;;;;;;;;5.00;5.00;;;;;-147.17;100.00;50430.63;4947116;28;52547;-65
2021/12/11 06:43:01;;;;;;;;;3.00;2.00;;;;;-147.17;100.00;50448.34;4948276;28;51355;-66
2021/12/11 06:45:28;;;;;;;;;1.00;1.00;;;;;-147.17;100.00;50466.06;4947923;28;51267;-65
2021/12/11 06:47:53;;;;;;;;;2.50;2.50;;;;;-147.17;100.00;50462.13;4948711;28;51365;-65
2021/12/11 06:50:19;;;;;;;;;3.50;2.25;;;;;-147.17;100.00;50483.78;4951056;28;52744;-64
2021/12/11 06:52:48;;;;;;;;;3.75;3.00;;;;;-147.17;100.00;50485.75;4945341;28;51425;-65
2021/12/11 06:55:16;;;;;;;;;5.75;4.25;;;;;-147.17;100.00;50440.47;4950739;28;51276;-65
2021/12/11 06:57:41;;;;;;;;;5.25;2.25;;;;;-147.17;100.00;50452.28;4943321;28;51387;-65
2021/12/11 07:00:08;;;;;;;;;1.00;1.00;;;;;-147.17;100.00;50470.00;4949700;28;52037;-66
2021/12/11 07:02:33;;;;;;;;;5.00;2.75;;;;;-147.17;100.00;50466.06;4949826;28;51401;-66
2021/12/11 07:04:59;;;;;;;;;3.00;3.00;;;;;-147.17;100.00;50436.53;4935557;28;51290;-65
2021/12/11 07:07:31;;;;;;;;;5.50;4.75;;;;;-147.17;100.00;50422.75;4939573;28;51132;-65
2021/12/11 07:09:57;;;;;;;;;2.00;2.00;;;;;-147.17;100.00;50442.44;4945194;28;52938;-65
2021/12/11 07:12:23;;;;;;;;;3.00;3.00;;;;;-147.17;100.00;50487.72;4946551;28;51495;-65
2021/12/11 07:14:49;;;;;;;;;3.00;1.50;;;;;-147.17;100.00;50470.00;4952286;28;51117;-66
2021/12/11 07:17:15;;;;;;;;;2.00;2.00;;;;;-147.17;100.00;50458.19;4967707;28;51400;-65
2021/12/11 07:19:40;;;;;;;;;2.00;2.00;;;;;-147.17;100.00;50450.31;4956217;28;53420;-64
2021/12/11 07:22:07;;;;;;;;;2.75;2.00;;;;;-147.17;100.00;50448.34;4956584;28;51322;-65
2021/12/11 07:24:38;;;;;;;;;2.00;1.00;;;;;-147.17;100.00;50448.34;4954345;28;51351;-65
2021/12/11 07:27:07;;;;;;;;;3.00;3.00;;;;;-147.17;100.00;50487.72;4954249;28;51178;-65
2021/12/11 07:29:34;;;;;;;;;2.00;2.00;;;;;-147.17;100.00;50491.66;4957107;28;52767;-65
2021/12/11 07:32:00;;;;;;;;;2.50;2.50;;;;;-147.17;100.00;50442.44;4953617;28;51101;-66
2021/12/11 07:34:25;;;;;;;;;4.00;2.00;;;;;-147.17;100.00;50446.38;4957924;28;50927;-66
2021/12/11 07:36:51;;;;;;;;;6.50;3.75;;;;;-147.17;100.00;50456.22;4956500;28;51129;-65
2021/12/11 07:39:20;;;;;;;;;4.00;3.00;;;;;-147.17;100.00;50466.06;4959037;28;52762;-67
2021/12/11 07:41:47;;;;;;;;;3.00;3.00;;;;;-147.17;100.00;50473.94;4951861;28;51201;-66
2021/12/11 07:44:13;;;;;;;;;4.75;3.00;;;;;-147.17;100.00;50438.50;4954652;28;51106;-66
2021/12/11 07:46:39;;;;;;;;;3.00;2.00;;;;;-147.17;100.00;50485.75;4942997;28;51489;-66
2021/12/11 07:49:06;;;;;;;;;2.25;1.50;;;;;-147.17;100.00;50471.97;4940020;28;51308;-65
2021/12/11 07:51:35;;;;;;;;;2.00;2.00;;;;;-147.17;100.00;50468.03;4949836;28;51186;-66
2021/12/11 07:54:00;;;;;;;;;6.00;5.25;;;;;-147.17;100.00;50442.44;4955745;28;51449;-66
2021/12/11 07:56:27;;;;;;;;;2.75;2.75;;;;;-147.17;100.00;50468.03;4956909;28;51151;-65
2021/12/11 07:58:57;;;;;;;;;6.00;5.00;;;;;-147.17;100.00;50475.91;4948673;28;51910;-65
2021/12/11 08:01:23;;;;;;;;;6.00;5.50;;;;;-147.17;100.00;50458.19;4954453;28;50991;-66
2021/12/11 08:03:48;;;;;;;;;7.00;6.25;;;;;-147.17;100.00;50473.94;4957472;28;51355;-66
2021/12/11 08:06:15;;;;;;;;;4.00;3.00;;;;;-147.17;100.00;50450.31;4951996;28;51342;-66
2021/12/11 08:08:42;;;;;;;;;3.25;3.00;;;;;-147.17;100.00;50477.88;4951535;28;51991;-66
2021/12/11 08:11:13;;;;;;;;;6.00;3.00;;;;;-147.17;100.00;50432.59;4953101;28;51267;-66
2021/12/11 08:13:43;;;;;;;;;2.00;2.00;;;;;-147.17;100.00;50454.25;4956508;28;51190;-65
2021/12/11 08:16:10;;;;;;;;;3.25;3.00;;;;;-147.17;100.00;50470.00;4956955;28;50866;-65
2021/12/11 08:18:36;;;;;;;;;5.00;4.75;;;;;-147.17;100.00;50458.19;4949385;28;53113;-65
2021/12/11 08:21:01;;;;;;;;;3.00;3.00;;;;;-147.17;100.00;50470.00;4951664;28;51141;-65
2021/12/11 08:23:27;;;;;;;;;3.00;2.75;;;;;-147.17;100.00;50475.91;4942943;28;51208;-66
2021/12/11 08:25:54;;;;;;;;;6.00;6.00;;;;;-147.17;100.00;50462.13;4947197;28;51259;-66
2021/12/11 08:28:24;;;;;;;;;4.25;4.25;;;;;-147.17;100.00;50473.94;4952808;28;51846;-65
2021/12/11 08:30:52;;;;;;;;;6.50;6.00;;;;;-147.17;100.00;50473.94;4940719;28;50977;-66
2021/12/11 08:33:20;;;;;;;;;4.75;4.25;;;;;-147.17;100.00;50446.38;4948643;28;51132;-67
2021/12/11 08:35:46;;;;;;;;;4.50;3.50;;;;;-147.17;100.00;50479.84;4940618;28;51324;-66
2021/12/11 08:38:12;;;;;;;;;6.00;5.75;;;;;-147.17;100.00;50434.56;4952938;28;50982;-67
2021/12/11 08:40:42;;;;;;;;;6.00;5.00;;;;;-147.17;100.00;50485.75;4945935;28;50986;-66
2021/12/11 08:43:13;;;;;;;;;4.00;3.00;;;;;-147.17;100.00;50471.97;4957489;28;51159;-67
2021/12/11 08:45:57;;;;;;;;;4.00;4.00;;;;;-147.17;100.00;50450.31;4940631;28;50835;-67
2021/12/11 08:48:24;;;;;;;;;3.75;3.00;;;;;-147.17;100.00;50499.53;4945797;28;52020;-67
2021/12/11 08:50:56;;;;;;;;;4.00;3.50;;;;;-147.17;100.00;50456.22;4945890;28;51013;-67
2021/12/11 08:53:21;;;;;;;;;7.00;6.50;;;;;-147.17;100.00;50458.19;4944959;28;51107;-67
2021/12/11 08:55:51;;;;;;;;;4.50;3.00;;;;;-147.17;100.00;50468.03;4957337;28;51320;-67
2021/12/11 08:58:18;;;;;;;;;7.00;6.75;;;;;-147.17;100.00;50501.50;4950515;28;53093;-67
2021/12/11 09:03:36;;;;;;;;;7.00;7.00;;;;;-147.17;100.00;50527.09;5068039;22;51217;-64
2021/12/11 09:06:10;;;;;;;;;10.00;7.50;;;;;-147.17;100.00;50505.44;4974554;28;51279;-65
2021/12/11 09:08:51;;;;;;;;;7.00;7.00;;;;;-147.17;100.00;50521.19;4970787;28;52102;-63
2021/12/11 09:11:26;;;;;;;;;6.50;6.00;;;;;-147.17;100.00;50531.03;4965152;28;51473;-63
2021/12/11 09:14:14;;;;;;;;;6.00;6.00;;;;;-147.17;100.00;50497.56;4967033;28;51215;-63
2021/12/11 09:17:15;;;;;;;;;6.00;5.00;;;;;-147.17;100.00;50523.16;4974091;28;51111;-60
2021/12/11 09:19:49;;;;;;;;;4.25;2.00;;;;;-147.17;100.00;50505.44;4964169;28;51019;-61
2021/12/11 09:22:22;;;;;;;;;4.00;3.25;;;;;-147.17;100.00;50501.50;4970557;28;51111;-61
2021/12/11 09:24:51;;;;;;;;;7.50;7.25;;;;;-147.17;100.00;50501.50;4963278;28;51316;-63
2021/12/11 09:27:31;;;;;;;;;7.50;5.75;;;;;-147.17;100.00;50491.66;4958324;28;51080;-62
2021/12/11 09:29:56;;;;;;;;;4.50;4.50;;;;;-147.17;100.00;50531.03;4971707;28;51330;-61
2021/12/11 09:32:34;;;;;;;;;7.00;6.50;;;;;-147.17;100.00;50536.94;4964771;28;51191;-62
2021/12/11 09:35:08;;;;;;;;;8.00;7.75;;;;;-147.17;100.00;50554.66;4964270;28;51105;-61
2021/12/11 09:37:34;;;;;;;;;7.00;7.00;;;;;-147.17;100.00;50529.06;4964286;28;51352;-61
2021/12/11 09:40:18;;;;;;;;;6.25;6.00;;;;;-147.17;100.00;50509.38;4952308;28;52027;-63
2021/12/11 09:42:44;;;;;;;;;7.50;7.50;;;;;-147.17;100.00;50525.13;4953801;28;50905;-62
2021/12/11 09:45:18;;;;;;;;;11.75;11.75;;;;;-147.17;100.00;50533.00;4953798;28;58947;-63
2021/12/11 09:47:51;;;;;;;;;8.00;8.00;;;;;-147.17;100.00;50509.38;4972561;28;51224;-63
2021/12/11 09:50:24;;;;;;;;;11.75;11.50;;;;;-147.17;100.00;50521.19;4973000;28;51994;-63
2021/12/11 09:52:50;;;;;;;;;8.25;7.25;;;;;-147.17;100.00;50568.44;4973381;28;51061;-63
2021/12/11 09:55:21;;;;;;;;;5.25;5.25;;;;;-147.17;100.00;50521.19;4973307;28;51083;-63
2021/12/11 09:57:53;;;;;;;;;7.00;7.00;;;;;-147.17;100.00;50564.50;4962294;28;50967;-63
2021/12/11 10:00:18;;;;;;;;;7.50;7.00;;;;;-147.17;100.00;50554.66;4953827;28;52825;-63
2021/12/11 10:02:44;;;;;;;;;9.50;8.75;;;;;-147.17;100.00;50560.56;4961114;28;51018;-63
2021/12/11 10:08:30;;;;;;;;;5.00;5.00;;;;;-147.17;100.00;50568.44;4954252;28;52194;-62
2021/12/11 10:11:01;;;;;;;;;8.25;7.75;;;;;-147.17;100.00;50554.66;4972744;28;51040;-62
2021/12/11 10:13:28;;;;;;;;;9.00;8.00;;;;;-147.17;100.00;50564.50;4973057;28;50916;-62
2021/12/11 10:15:53;;;;;;;;;5.00;5.00;;;;;-147.17;100.00;50556.63;4973370;28;50968;-63
2021/12/11 10:18:24;;;;;;;;;8.25;7.00;;;;;-147.17;100.00;50550.72;4973450;28;51136;-63
2021/12/11 10:20:55;;;;;;;;;3.25;3.25;;;;;-147.17;100.00;50572.38;4972974;28;51031;-62
2021/12/11 10:23:27;;;;;;;;;5.00;5.00;;;;;-147.17;100.00;50586.16;4972465;28;51055;-62
2021/12/11 10:25:54;;;;;;;;;15.50;12.00;;;;;-147.17;100.00;50586.16;4971578;28;51112;-63
2021/12/11 10:28:23;;;;;;;;;11.00;10.00;;;;;-147.17;100.00;50599.94;4971215;28;51154;-63
2021/12/11 10:30:59;;;;;;;;;9.75;8.00;;;;;-147.17;100.00;50584.19;4972559;28;52833;-61
2021/12/11 10:33:28;;;;;;;;;7.75;6.50;;;;;-147.17;100.00;50576.31;4972502;28;50993;-63
2021/12/11 10:35:57;;;;;;;;;7.25;5.00;;;;;-147.17;100.00;50570.41;4972560;28;51059;-62
2021/12/11 10:38:23;;;;;;;;;11.00;9.00;;;;;-147.17;100.00;50631.44;4970928;28;51162;-63
2021/12/11 10:40:53;;;;;;;;;5.00;5.00;;;;;-147.17;100.00;50615.69;4972327;28;51964;-61
2021/12/11 10:43:42;;;;;;;;;7.25;6.75;;;;;-147.17;100.00;50568.44;4954075;28;51033;-62
2021/12/11 10:46:10;;;;;;;;;7.00;7.00;;;;;-147.17;100.00;50596.00;4960129;28;51084;-62
2021/12/11 10:48:37;;;;;;;;;8.25;8.00;;;;;-147.17;100.00;50605.84;4972104;28;50912;-63
2021/12/11 10:51:12;;;;;;;;;7.50;6.75;;;;;-147.17;100.00;50611.75;4971743;28;51753;-62
2021/12/11 10:53:42;;;;;;;;;9.25;9.25;;;;;-147.17;100.00;50607.81;4971802;28;50937;-62
2021/12/11 10:56:08;;;;;;;;;28.25;26.75;;;;;-147.17;100.00;50611.75;4972243;28;51149;-62
2021/12/11 10:58:40;;;;;;;;;7.75;7.00;;;;;-147.17;98.49;50651.13;4972127;28;51157;-62
2021/12/11 11:01:11;;;;;;;;;8.25;8.00;;;;;-147.17;99.48;50594.03;4970548;28;51025;-62
2021/12/11 11:03:39;;;;;;;;;8.50;8.00;;;;;-147.17;100.00;50586.16;4970926;28;51053;-62
2021/12/11 11:06:06;;;;;;;;;9.00;8.25;;;;;-147.17;100.00;50560.56;4971587;28;51146;-62
2021/12/11 11:08:32;;;;;;;;;16.25;13.25;;;;;-147.17;100.00;50580.25;4971447;28;51006;-62
2021/12/11 11:11:04;;;;;;;;;6.75;6.75;;;;;-147.17;100.00;50599.94;4971703;28;51865;-62
2021/12/11 11:13:30;;;;;;;;;12.75;10.75;;;;;-147.17;100.00;50623.56;4971948;28;51086;-62
2021/12/11 11:15:56;;;;;;;;;13.75;11.25;;;;;-147.17;100.00;50615.69;4970389;28;51198;-63
2021/12/11 11:18:26;;;;;;;;;16.00;11.50;;;;;-147.17;100.00;50645.22;4970682;28;51011;-62
2021/12/11 11:21:24;;;;;;;;;14.50;13.00;;;;;-147.17;100.00;50599.94;4971701;28;51018;-62
2021/12/11 11:23:50;;;;;;;;;14.00;11.75;;;;;-147.17;100.00;50655.06;4969171;28;51295;-62
2021/12/11 11:26:23;;;;;;;;;9.50;8.50;;;;;-147.17;99.49;50625.53;4971551;28;51051;-62
2021/12/11 11:28:49;;;;;;;;;8.00;6.25;;;;;-147.17;98.29;50617.66;4970907;28;50884;-62
2021/12/11 11:31:19;;;;;;;;;9.00;8.50;;;;;-147.17;97.34;50659.00;4971403;28;51796;-62
2021/12/11 11:33:46;;;;;;;;;12.00;10.50;;;;;-147.17;96.09;50633.41;4962252;28;51034;-62
2021/12/11 11:36:15;;;;;;;;;7.75;6.00;;;;;-147.17;96.21;50659.00;4965272;28;51019;-66
2021/12/11 11:38:45;;;;;;;;;9.50;9.25;;;;;-147.17;96.04;50662.94;4971009;28;50979;-63
2021/12/11 11:41:17;;;;;;;;;10.00;8.00;;;;;-147.17;95.69;50629.47;4971304;28;50954;-63
2021/12/11 11:43:43;;;;;;;;;11.00;10.50;;;;;-147.17;95.71;50682.63;4971653;28;51070;-63
2021/12/11 11:46:09;;;;;;;;;10.25;9.50;;;;;-147.17;95.59;50649.16;4971658;28;51053;-62
2021/12/11 11:48:37;;;;;;;;;9.00;6.00;;;;;-147.17;94.09;50653.09;4971478;28;51003;-63